Terminal Aerodrome Forecast
Issued by NWS

Home | Current Version | Previous Version | Text Only | Print | Product List | Glossary On
Versions: 1 2 3 4 5 6 7 8 9 10 11 12 13 14 15 16 17
000
FTUS44 KMAF 172300
TAFINK
TAF
KINK 172320Z 1800/1824 16006KT P6SM SCT040 BKN150
     FM181200 12007KT P6SM BKN025
     FM181800 12008KT P6SM BKN040=

USA.gov is the U.S. government's official web portal to all federal, state and local government web resources and services.